sensor_id;sensor_type;location;lat;lon;timestamp;P1;durP1;ratioP1;P2;durP2;ratioP2
15557;SDS011;7880;50.110;9.372;2023-02-28T00:02:43;2.661538461538462;;;1.6;;
15557;SDS011;7880;50.110;9.372;2023-02-28T00:07:49;2.3615384615384616;;;1.6999999999999995;;
15557;SDS011;7880;50.110;9.372;2023-02-28T00:12:50;2.899999999999999;;;1.6999999999999995;;
15557;SDS011;7880;50.110;9.372;2023-02-28T00:17:55;3.7615384615384633;;;2.1999999999999997;;
15557;SDS011;7880;50.110;9.372;2023-02-28T00:23:06;5.538461538461537;;;1.8999999999999997;;
15557;SDS011;7880;50.110;9.372;2023-02-28T00:28:04;1.5;;;1.4;;
15557;SDS011;7880;50.110;9.372;2023-02-28T00:33:11;2.453846153846153;;;1.6999999999999995;;
15557;SDS011;7880;50.110;9.372;2023-02-28T00:38:15;2.853846153846154;;;2.176923076923077;;
15557;SDS011;7880;50.110;9.372;2023-02-28T00:43:18;3.3230769230769237;;;1.7615384615384615;;
15557;SDS011;7880;50.110;9.372;2023-02-28T00:48:23;2.0;;;1.8000000000000005;;
15557;SDS011;7880;50.110;9.372;2023-02-28T00:53:26;2.5615384615384618;;;2.0;;
15557;SDS011;7880;50.110;9.372;2023-02-28T00:58:30;3.600000000000001;;;2.3000000000000003;;
15557;SDS011;7880;50.110;9.372;2023-02-28T01:03:34;2.3615384615384616;;;1.861538461538462;;
15557;SDS011;7880;50.110;9.372;2023-02-28T01:08:38;4.523076923076923;;;2.1999999999999997;;
15557;SDS011;7880;50.110;9.372;2023-02-28T01:13:50;5.584615384615386;;;1.8000000000000005;;
15557;SDS011;7880;50.110;9.372;2023-02-28T01:18:51;2.5615384615384618;;;1.6999999999999995;;
15557;SDS011;7880;50.110;9.372;2023-02-28T01:23:55;3.0615384615384618;;;1.8000000000000005;;
15557;SDS011;7880;50.110;9.372;2023-02-28T01:29:05;3.4384615384615382;;;2.0;;
15557;SDS011;7880;50.110;9.372;2023-02-28T01:34:05;2.1000000000000005;;;1.8000000000000005;;
15557;SDS011;7880;50.110;9.372;2023-02-28T01:38:53;3.123076923076923;;;2.161538461538461;;
15557;SDS011;7880;50.110;9.372;2023-02-28T01:43:59;2.3615384615384616;;;1.6;;
15557;SDS011;7880;50.110;9.372;2023-02-28T01:49:05;2.9384615384615382;;;1.6999999999999995;;
15557;SDS011;7880;50.110;9.372;2023-02-28T01:54:14;5.484615384615385;;;2.3000000000000003;;
15557;SDS011;7880;50.110;9.372;2023-02-28T01:59:14;3.6230769230769226;;;2.2615384615384615;;
15557;SDS011;7880;50.110;9.372;2023-02-28T02:04:17;2.161538461538462;;;1.861538461538462;;
15557;SDS011;7880;50.110;9.372;2023-02-28T02:09:20;3.161538461538462;;;1.8000000000000005;;
15557;SDS011;7880;50.110;9.372;2023-02-28T02:14:33;4.161538461538462;;;2.5;;
15557;SDS011;7880;50.110;9.372;2023-02-28T02:19:39;3.2692307692307683;;;1.7307692307692302;;
15557;SDS011;7880;50.110;9.372;2023-02-28T02:24:59;2.1000000000000005;;;1.8999999999999997;;
15557;SDS011;7880;50.110;9.372;2023-02-28T02:30:02;1.9769230769230777;;;1.638461538461538;;
15557;SDS011;7880;50.110;9.372;2023-02-28T02:34:59;6.184615384615384;;;2.0615384615384618;;
15557;SDS011;7880;50.110;9.372;2023-02-28T02:40:04;2.5;;;1.8000000000000005;;
15557;SDS011;7880;50.110;9.372;2023-02-28T02:45:06;3.3615384615384603;;;2.0;;
15557;SDS011;7880;50.110;9.372;2023-02-28T02:50:22;2.3615384615384616;;;2.1000000000000005;;
15557;SDS011;7880;50.110;9.372;2023-02-28T02:55:14;3.6230769230769226;;;1.8999999999999997;;
15557;SDS011;7880;50.110;9.372;2023-02-28T03:00:23;2.1000000000000005;;;1.6;;
15557;SDS011;7880;50.110;9.372;2023-02-28T03:05:23;2.3769230769230774;;;1.8384615384615381;;
15557;SDS011;7880;50.110;9.372;2023-02-28T03:10:29;2.5615384615384618;;;2.0;;
15557;SDS011;7880;50.110;9.372;2023-02-28T03:15:32;4.592307692307693;;;2.3000000000000003;;
15557;SDS011;7880;50.110;9.372;2023-02-28T03:20:40;2.6076923076923078;;;1.6999999999999995;;
15557;SDS011;7880;50.110;9.372;2023-02-28T03:25:42;2.3999999999999995;;;1.9384615384615387;;
15557;SDS011;7880;50.110;9.372;2023-02-28T03:30:52;2.8615384615384607;;;1.6;;
15557;SDS011;7880;50.110;9.372;2023-02-28T03:35:48;2.3615384615384616;;;2.161538461538462;;
15557;SDS011;7880;50.110;9.372;2023-02-28T03:40:55;2.5615384615384618;;;1.7384615384615385;;
15557;SDS011;7880;50.110;9.372;2023-02-28T03:45:57;2.8615384615384607;;;2.0;;
15557;SDS011;7880;50.110;9.372;2023-02-28T03:51:02;2.8307692307692305;;;1.9230769230769225;;
15557;SDS011;7880;50.110;9.372;2023-02-28T03:56:09;3.7615384615384633;;;2.0;;
15557;SDS011;7880;50.110;9.372;2023-02-28T04:01:13;2.453846153846153;;;1.8000000000000005;;
15557;SDS011;7880;50.110;9.372;2023-02-28T04:06:15;4.323076923076924;;;2.1000000000000005;;
15557;SDS011;7880;50.110;9.372;2023-02-28T04:11:21;3.115384615384615;;;2.0769230769230766;;
15557;SDS011;7880;50.110;9.372;2023-02-28T04:16:24;2.5;;;1.8000000000000005;;
15557;SDS011;7880;50.110;9.372;2023-02-28T04:21:29;2.176923076923077;;;1.6999999999999995;;
15557;SDS011;7880;50.110;9.372;2023-02-28T04:26:41;3.7615384615384633;;;2.2615384615384615;;
15557;SDS011;7880;50.110;9.372;2023-02-28T04:31:37;5.684615384615384;;;2.0;;
15557;SDS011;7880;50.110;9.372;2023-02-28T04:36:40;3.2538461538461543;;;2.1999999999999997;;
15557;SDS011;7880;50.110;9.372;2023-02-28T04:41:48;4.799999999999999;;;2.369230769230769;;
15557;SDS011;7880;50.110;9.372;2023-02-28T04:46:50;1.8999999999999997;;;1.6;;
15557;SDS011;7880;50.110;9.372;2023-02-28T04:51:54;3.2999999999999994;;;2.5;;
15557;SDS011;7880;50.110;9.372;2023-02-28T04:56:57;4.1000000000000005;;;1.7384615384615385;;
15557;SDS011;7880;50.110;9.372;2023-02-28T05:02:06;7.084615384615388;;;3.0615384615384618;;
15557;SDS011;7880;50.110;9.372;2023-02-28T05:07:10;3.2615384615384633;;;1.8000000000000005;;
15557;SDS011;7880;50.110;9.372;2023-02-28T05:12:13;2.3999999999999995;;;1.8999999999999997;;
15557;SDS011;7880;50.110;9.372;2023-02-28T05:17:16;2.7307692307692313;;;1.8999999999999997;;
15557;SDS011;7880;50.110;9.372;2023-02-28T05:22:19;3.923076923076922;;;2.0615384615384618;;
15557;SDS011;7880;50.110;9.372;2023-02-28T05:27:23;2.4384615384615382;;;2.0;;
15557;SDS011;7880;50.110;9.372;2023-02-28T05:32:29;5.700000000000002;;;2.538461538461539;;
15557;SDS011;7880;50.110;9.372;2023-02-28T05:37:29;5.776923076923079;;;2.3000000000000003;;
15557;SDS011;7880;50.110;9.372;2023-02-28T05:42:33;4.223076923076923;;;2.1999999999999997;;
15557;SDS011;7880;50.110;9.372;2023-02-28T05:47:37;3.161538461538462;;;2.1000000000000005;;
15557;SDS011;7880;50.110;9.372;2023-02-28T05:52:40;3.7615384615384633;;;2.1999999999999997;;
15557;SDS011;7880;50.110;9.372;2023-02-28T05:57:44;2.461538461538461;;;1.8000000000000005;;
15557;SDS011;7880;50.110;9.372;2023-02-28T06:02:49;2.5615384615384618;;;2.0;;
15557;SDS011;7880;50.110;9.372;2023-02-28T06:07:54;5.584615384615386;;;2.8615384615384607;;
15557;SDS011;7880;50.110;9.372;2023-02-28T06:13:05;4.153846153846153;;;1.8769230769230771;;
15557;SDS011;7880;50.110;9.372;2023-02-28T06:18:02;3.215384615384615;;;2.2384615384615385;;
15557;SDS011;7880;50.110;9.372;2023-02-28T06:23:05;10.246153846153847;;;3.0;;
15557;SDS011;7880;50.110;9.372;2023-02-28T06:28:09;3.7538461538461543;;;2.1999999999999997;;
15557;SDS011;7880;50.110;9.372;2023-02-28T06:33:13;2.0;;;1.8000000000000005;;
15557;SDS011;7880;50.110;9.372;2023-02-28T06:38:18;6.492307692307691;;;2.5;;
15557;SDS011;7880;50.110;9.372;2023-02-28T06:43:05;2.23076923076923;;;1.6;;
15557;SDS011;7880;50.110;9.372;2023-02-28T06:48:13;5.284615384615384;;;2.3999999999999995;;
15557;SDS011;7880;50.110;9.372;2023-02-28T06:53:12;4.223076923076923;;;3.0;;
15557;SDS011;7880;50.110;9.372;2023-02-28T06:58:15;7.0384615384615365;;;4.538461538461539;;
15557;SDS011;7880;50.110;9.372;2023-02-28T07:03:21;17.907692307692304;;;10.338461538461539;;
15557;SDS011;7880;50.110;9.372;2023-02-28T07:08:24;6.4615384615384635;;;4.438461538461538;;
15557;SDS011;7880;50.110;9.372;2023-02-28T07:13:29;4.1230769230769235;;;2.1999999999999997;;
15557;SDS011;7880;50.110;9.372;2023-02-28T07:18:30;3.7615384615384633;;;2.538461538461539;;
15557;SDS011;7880;50.110;9.372;2023-02-28T07:23:35;4.461538461538461;;;2.2384615384615385;;
15557;SDS011;7880;50.110;9.372;2023-02-28T07:28:39;3.807692307692309;;;2.1000000000000005;;
15557;SDS011;7880;50.110;9.372;2023-02-28T07:33:46;3.0769230769230775;;;2.1000000000000005;;
15557;SDS011;7880;50.110;9.372;2023-02-28T07:38:49;6.061538461538462;;;2.5;;
15557;SDS011;7880;50.110;9.372;2023-02-28T07:43:53;4.1230769230769235;;;2.2615384615384615;;
15557;SDS011;7880;50.110;9.372;2023-02-28T07:48:59;3.0153846153846158;;;1.9769230769230777;;
15557;SDS011;7880;50.110;9.372;2023-02-28T07:54:00;2.8;;;2.1000000000000005;;
15557;SDS011;7880;50.110;9.372;2023-02-28T07:59:14;3.7615384615384633;;;2.3999999999999995;;
15557;SDS011;7880;50.110;9.372;2023-02-28T08:04:06;4.5;;;3.2;;
15557;SDS011;7880;50.110;9.372;2023-02-28T08:09:09;4.6230769230769235;;;2.461538461538461;;
15557;SDS011;7880;50.110;9.372;2023-02-28T08:14:12;6.038461538461538;;;2.6769230769230767;;
15557;SDS011;7880;50.110;9.372;2023-02-28T08:19:19;5.43076923076923;;;3.0;;
15557;SDS011;7880;50.110;9.372;2023-02-28T08:24:24;3.1769230769230767;;;2.476923076923077;;
15557;SDS011;7880;50.110;9.372;2023-02-28T08:29:26;5.338461538461539;;;3.4384615384615382;;
15557;SDS011;7880;50.110;9.372;2023-02-28T08:34:32;5.176923076923076;;;3.100000000000001;;
15557;SDS011;7880;50.110;9.372;2023-02-28T08:39:47;8.023076923076925;;;3.461538461538461;;
15557;SDS011;7880;50.110;9.372;2023-02-28T08:44:38;5.6230769230769235;;;3.461538461538461;;
15557;SDS011;7880;50.110;9.372;2023-02-28T08:49:41;4.053846153846153;;;3.2384615384615367;;
15557;SDS011;7880;50.110;9.372;2023-02-28T08:54:46;5.230769230769231;;;3.7000000000000006;;
15557;SDS011;7880;50.110;9.372;2023-02-28T08:59:53;5.176923076923076;;;3.338461538461538;;
15557;SDS011;7880;50.110;9.372;2023-02-28T09:04:55;4.799999999999999;;;3.161538461538462;;
15557;SDS011;7880;50.110;9.372;2023-02-28T09:09:59;4.700000000000001;;;3.6384615384615397;;
15557;SDS011;7880;50.110;9.372;2023-02-28T09:15:05;5.476923076923075;;;3.838461538461538;;
15557;SDS011;7880;50.110;9.372;2023-02-28T09:20:11;6.761538461538462;;;3.600000000000001;;
15557;SDS011;7880;50.110;9.372;2023-02-28T09:25:12;8.107692307692306;;;4.36153846153846;;
15557;SDS011;7880;50.110;9.372;2023-02-28T09:30:15;5.138461538461541;;;3.7384615384615367;;
15557;SDS011;7880;50.110;9.372;2023-02-28T09:35:21;7.8769230769230765;;;3.7000000000000006;;
15557;SDS011;7880;50.110;9.372;2023-02-28T09:40:26;7.900000000000001;;;3.600000000000001;;
15557;SDS011;7880;50.110;9.372;2023-02-28T09:45:28;6.453846153846154;;;3.9384615384615382;;
15557;SDS011;7880;50.110;9.372;2023-02-28T09:50:33;5.6;;;3.4384615384615382;;
15557;SDS011;7880;50.110;9.372;2023-02-28T09:55:37;4.738461538461538;;;3.538461538461539;;
15557;SDS011;7880;50.110;9.372;2023-02-28T10:00:43;6.261538461538462;;;4.3999999999999995;;
15557;SDS011;7880;50.110;9.372;2023-02-28T10:05:48;6.276923076923079;;;4.1000000000000005;;
15557;SDS011;7880;50.110;9.372;2023-02-28T10:10:50;7.299999999999998;;;4.238461538461538;;
15557;SDS011;7880;50.110;9.372;2023-02-28T10:15:55;5.6230769230769235;;;3.8615384615384603;;
15557;SDS011;7880;50.110;9.372;2023-02-28T10:21:02;6.884615384615386;;;3.7615384615384633;;
15557;SDS011;7880;50.110;9.372;2023-02-28T10:26:08;4.700000000000001;;;3.7000000000000006;;
15557;SDS011;7880;50.110;9.372;2023-02-28T10:31:08;5.638461538461541;;;2.838461538461538;;
15557;SDS011;7880;50.110;9.372;2023-02-28T10:36:12;5.461538461538463;;;3.7000000000000006;;
15557;SDS011;7880;50.110;9.372;2023-02-28T10:41:36;3.838461538461538;;;3.100000000000001;;
15557;SDS011;7880;50.110;9.372;2023-02-28T10:46:33;6.384615384615386;;;3.461538461538461;;
15557;SDS011;7880;50.110;9.372;2023-02-28T10:51:25;4.438461538461538;;;3.399999999999999;;
15557;SDS011;7880;50.110;9.372;2023-02-28T10:56:35;5.723076923076921;;;3.399999999999999;;
15557;SDS011;7880;50.110;9.372;2023-02-28T11:01:37;4.153846153846154;;;3.530769230769231;;
15557;SDS011;7880;50.110;9.372;2023-02-28T11:06:37;4.3999999999999995;;;3.5;;
15557;SDS011;7880;50.110;9.372;2023-02-28T11:11:42;5.6;;;3.538461538461539;;
15557;SDS011;7880;50.110;9.372;2023-02-28T11:16:47;4.438461538461538;;;3.576923076923078;;
15557;SDS011;7880;50.110;9.372;2023-02-28T11:26:57;5.6230769230769235;;;4.461538461538461;;
15557;SDS011;7880;50.110;9.372;2023-02-28T11:32:09;4.730769230769231;;;3.2307692307692295;;
15557;SDS011;7880;50.110;9.372;2023-02-28T11:37:09;6.038461538461537;;;3.9692307692307693;;
15557;SDS011;7880;50.110;9.372;2023-02-28T11:42:18;6.761538461538462;;;4.338461538461538;;
15557;SDS011;7880;50.110;9.372;2023-02-28T11:47:23;7.6307692307692285;;;4.700000000000001;;
15557;SDS011;7880;50.110;9.372;2023-02-28T11:52:26;5.923076923076922;;;4.661538461538462;;
15557;SDS011;7880;50.110;9.372;2023-02-28T11:57:33;8.823076923076924;;;4.700000000000001;;
15557;SDS011;7880;50.110;9.372;2023-02-28T12:02:33;6.5;;;4.1000000000000005;;
15557;SDS011;7880;50.110;9.372;2023-02-28T12:07:37;5.723076923076921;;;4.5;;
15557;SDS011;7880;50.110;9.372;2023-02-28T12:12:43;7.884615384615386;;;4.36153846153846;;
15557;SDS011;7880;50.110;9.372;2023-02-28T12:17:47;6.1;;;4.299999999999999;;
15557;SDS011;7880;50.110;9.372;2023-02-28T12:22:49;6.200000000000002;;;4.299999999999999;;
15557;SDS011;7880;50.110;9.372;2023-02-28T12:27:53;7.599999999999999;;;4.761538461538462;;
15557;SDS011;7880;50.110;9.372;2023-02-28T12:33:00;6.638461538461541;;;4.338461538461538;;
15557;SDS011;7880;50.110;9.372;2023-02-28T12:38:03;5.461538461538463;;;4.0;;
15557;SDS011;7880;50.110;9.372;2023-02-28T12:43:06;8.16153846153846;;;5.299999999999999;;
15557;SDS011;7880;50.110;9.372;2023-02-28T12:48:16;7.4615384615384635;;;4.676923076923076;;
15557;SDS011;7880;50.110;9.372;2023-02-28T12:53:17;6.438461538461538;;;4.200000000000001;;
15557;SDS011;7880;50.110;9.372;2023-02-28T12:58:20;5.661538461538461;;;3.961538461538461;;
15557;SDS011;7880;50.110;9.372;2023-02-28T13:03:30;5.723076923076923;;;3.776923076923076;;
15557;SDS011;7880;50.110;9.372;2023-02-28T13:08:34;6.8769230769230765;;;3.7384615384615367;;
15557;SDS011;7880;50.110;9.372;2023-02-28T13:13:55;5.638461538461538;;;4.1000000000000005;;
15557;SDS011;7880;50.110;9.372;2023-02-28T13:19:08;6.200000000000001;;;4.2153846153846155;;
15557;SDS011;7880;50.110;9.372;2023-02-28T13:24:01;8.13846153846154;;;4.1000000000000005;;
15557;SDS011;7880;50.110;9.372;2023-02-28T13:29:43;5.076923076923078;;;4.176923076923076;;
15557;SDS011;7880;50.110;9.372;2023-02-28T13:34:23;5.261538461538462;;;4.36153846153846;;
15557;SDS011;7880;50.110;9.372;2023-02-28T13:39:58;7.084615384615388;;;4.261538461538462;;
15557;SDS011;7880;50.110;9.372;2023-02-28T13:45:23;6.023076923076925;;;4.161538461538462;;
15557;SDS011;7880;50.110;9.372;2023-02-28T13:50:14;10.846153846153843;;;4.561538461538462;;
15557;SDS011;7880;50.110;9.372;2023-02-28T13:55:21;6.4615384615384635;;;3.6384615384615397;;
15557;SDS011;7880;50.110;9.372;2023-02-28T14:00:22;5.423076923076922;;;3.5;;
15557;SDS011;7880;50.110;9.372;2023-02-28T14:05:32;6.823076923076924;;;4.461538461538461;;
15557;SDS011;7880;50.110;9.372;2023-02-28T14:10:27;6.453846153846154;;;4.276923076923077;;
15557;SDS011;7880;50.110;9.372;2023-02-28T14:15:38;7.369230769230768;;;4.200000000000001;;
15557;SDS011;7880;50.110;9.372;2023-02-28T14:20:39;6.561538461538462;;;4.299999999999999;;
15557;SDS011;7880;50.110;9.372;2023-02-28T14:25:39;8.376923076923076;;;4.538461538461539;;
15557;SDS011;7880;50.110;9.372;2023-02-28T14:30:50;10.476923076923075;;;5.238461538461538;;
15557;SDS011;7880;50.110;9.372;2023-02-28T14:35:58;6.700000000000002;;;4.700000000000001;;
15557;SDS011;7880;50.110;9.372;2023-02-28T14:40:52;5.438461538461538;;;3.6384615384615397;;
15557;SDS011;7880;50.110;9.372;2023-02-28T14:45:56;7.884615384615386;;;4.661538461538462;;
15557;SDS011;7880;50.110;9.372;2023-02-28T14:51:00;14.761538461538455;;;7.9615384615384635;;
15557;SDS011;7880;50.110;9.372;2023-02-28T14:56:03;18.461538461538467;;;9.599999999999998;;
15557;SDS011;7880;50.110;9.372;2023-02-28T15:01:26;8.446153846153846;;;5.653846153846154;;
15557;SDS011;7880;50.110;9.372;2023-02-28T15:06:13;6.5;;;4.569230769230769;;
15557;SDS011;7880;50.110;9.372;2023-02-28T15:11:19;25.092307692307692;;;12.653846153846157;;
15557;SDS011;7880;50.110;9.372;2023-02-28T15:16:22;8.761538461538464;;;5.5307692307692315;;
15557;SDS011;7880;50.110;9.372;2023-02-28T15:21:27;8.13846153846154;;;5.06923076923077;;
15557;SDS011;7880;50.110;9.372;2023-02-28T15:26:31;7.5;;;5.0;;
15557;SDS011;7880;50.110;9.372;2023-02-28T15:31:35;9.846153846153843;;;5.299999999999999;;
15557;SDS011;7880;50.110;9.372;2023-02-28T15:36:48;7.400000000000001;;;4.738461538461538;;
15557;SDS011;7880;50.110;9.372;2023-02-28T15:41:46;8.492307692307694;;;4.93076923076923;;
15557;SDS011;7880;50.110;9.372;2023-02-28T15:46:54;7.83846153846154;;;5.561538461538462;;
15557;SDS011;7880;50.110;9.372;2023-02-28T15:51:58;9.83076923076923;;;4.13846153846154;;
15557;SDS011;7880;50.110;9.372;2023-02-28T15:57:04;10.223076923076924;;;5.561538461538462;;
15557;SDS011;7880;50.110;9.372;2023-02-28T16:02:16;7.823076923076924;;;5.0;;
15557;SDS011;7880;50.110;9.372;2023-02-28T16:07:12;16.26923076923077;;;5.6;;
15557;SDS011;7880;50.110;9.372;2023-02-28T16:12:25;8.038461538461542;;;4.5;;
15557;SDS011;7880;50.110;9.372;2023-02-28T16:17:22;15.853846153846158;;;6.384615384615386;;
15557;SDS011;7880;50.110;9.372;2023-02-28T16:22:23;22.269230769230766;;;11.023076923076925;;
15557;SDS011;7880;50.110;9.372;2023-02-28T16:27:27;7.707692307692308;;;5.038461538461538;;
15557;SDS011;7880;50.110;9.372;2023-02-28T16:32:31;8.238461538461538;;;4.738461538461538;;
15557;SDS011;7880;50.110;9.372;2023-02-28T16:37:41;8.761538461538462;;;4.661538461538462;;
15557;SDS011;7880;50.110;9.372;2023-02-28T16:42:42;8.799999999999999;;;4.6000000000000005;;
15557;SDS011;7880;50.110;9.372;2023-02-28T16:47:45;6.584615384615388;;;4.299999999999999;;
15557;SDS011;7880;50.110;9.372;2023-02-28T16:51:36;7.4615384615384635;;;4.730769230769232;;
15557;SDS011;7880;50.110;9.372;2023-02-28T16:56:43;8.261538461538462;;;5.938461538461538;;
15557;SDS011;7880;50.110;9.372;2023-02-28T17:01:45;6.3538461538461535;;;4.038461538461539;;
15557;SDS011;7880;50.110;9.372;2023-02-28T17:06:51;7.63846153846154;;;4.200000000000001;;
15557;SDS011;7880;50.110;9.372;2023-02-28T17:12:00;5.792307692307692;;;3.538461538461539;;
15557;SDS011;7880;50.110;9.372;2023-02-28T17:16:59;6.038461538461537;;;4.13846153846154;;
15557;SDS011;7880;50.110;9.372;2023-02-28T17:22:03;6.938461538461538;;;3.838461538461538;;
15557;SDS011;7880;50.110;9.372;2023-02-28T17:27:09;8.346153846153843;;;5.361538461538459;;
15557;SDS011;7880;50.110;9.372;2023-02-28T17:32:10;13.061538461538458;;;7.761538461538464;;
15557;SDS011;7880;50.110;9.372;2023-02-28T17:37:15;12.415384615384612;;;7.438461538461538;;
15557;SDS011;7880;50.110;9.372;2023-02-28T17:42:18;19.22307692307692;;;8.900000000000002;;
15557;SDS011;7880;50.110;9.372;2023-02-28T17:47:28;16.638461538461534;;;9.038461538461537;;
15557;SDS011;7880;50.110;9.372;2023-02-28T17:52:29;13.146153846153847;;;7.099999999999999;;
15557;SDS011;7880;50.110;9.372;2023-02-28T17:57:30;10.400000000000002;;;6.299999999999998;;
15557;SDS011;7880;50.110;9.372;2023-02-28T18:02:33;14.130769230769232;;;6.515384615384615;;
15557;SDS011;7880;50.110;9.372;2023-02-28T18:07:43;11.353846153846153;;;7.238461538461538;;
15557;SDS011;7880;50.110;9.372;2023-02-28T18:12:45;15.469230769230773;;;8.13846153846154;;
15557;SDS011;7880;50.110;9.372;2023-02-28T18:17:49;14.923076923076927;;;8.876923076923076;;
15557;SDS011;7880;50.110;9.372;2023-02-28T18:22:53;15.43846153846154;;;9.176923076923076;;
15557;SDS011;7880;50.110;9.372;2023-02-28T18:27:59;16.523076923076925;;;8.5;;
15557;SDS011;7880;50.110;9.372;2023-02-28T18:33:05;12.523076923076925;;;7.599999999999999;;
15557;SDS011;7880;50.110;9.372;2023-02-28T18:38:18;13.684615384615388;;;7.9769230769230735;;
15557;SDS011;7880;50.110;9.372;2023-02-28T18:43:12;15.900000000000004;;;10.076923076923077;;
15557;SDS011;7880;50.110;9.372;2023-02-28T18:48:19;20.584615384615386;;;9.96923076923077;;
15557;SDS011;7880;50.110;9.372;2023-02-28T18:53:46;24.853846153846156;;;13.38461538461538;;
15557;SDS011;7880;50.110;9.372;2023-02-28T18:58:36;25.069230769230778;;;13.61538461538462;;
15557;SDS011;7880;50.110;9.372;2023-02-28T19:03:33;21.86153846153847;;;12.376923076923076;;
15557;SDS011;7880;50.110;9.372;2023-02-28T19:08:38;22.169230769230776;;;12.538461538461537;;
15557;SDS011;7880;50.110;9.372;2023-02-28T19:13:43;20.776923076923076;;;11.238461538461543;;
15557;SDS011;7880;50.110;9.372;2023-02-28T19:18:48;23.36153846153847;;;12.238461538461543;;
15557;SDS011;7880;50.110;9.372;2023-02-28T19:23:53;19.361538461538466;;;10.961538461538463;;
15557;SDS011;7880;50.110;9.372;2023-02-28T19:29:00;39.12307692307692;;;17.699999999999996;;
15557;SDS011;7880;50.110;9.372;2023-02-28T19:34:02;18.12307692307692;;;9.43846153846154;;
15557;SDS011;7880;50.110;9.372;2023-02-28T19:39:06;9.26153846153846;;;6.200000000000002;;
15557;SDS011;7880;50.110;9.372;2023-02-28T19:44:09;11.576923076923075;;;6.200000000000002;;
15557;SDS011;7880;50.110;9.372;2023-02-28T19:49:17;8.16153846153846;;;5.738461538461538;;
15557;SDS011;7880;50.110;9.372;2023-02-28T19:54:26;11.823076923076922;;;5.799999999999998;;
15557;SDS011;7880;50.110;9.372;2023-02-28T19:59:26;10.123076923076924;;;5.9;;
15557;SDS011;7880;50.110;9.372;2023-02-28T20:04:29;11.923076923076923;;;5.9692307692307685;;
15557;SDS011;7880;50.110;9.372;2023-02-28T20:09:33;9.938461538461537;;;4.8999999999999995;;
15557;SDS011;7880;50.110;9.372;2023-02-28T20:14:38;9.700000000000001;;;5.799999999999998;;
15557;SDS011;7880;50.110;9.372;2023-02-28T20:19:44;9.469230769230773;;;5.823076923076921;;
15557;SDS011;7880;50.110;9.372;2023-02-28T20:24:47;9.476923076923075;;;5.799999999999998;;
15557;SDS011;7880;50.110;9.372;2023-02-28T20:29:53;10.307692307692308;;;5.261538461538462;;
15557;SDS011;7880;50.110;9.372;2023-02-28T20:34:56;12.638461538461534;;;6.176923076923076;;
15557;SDS011;7880;50.110;9.372;2023-02-28T20:40:00;10.099999999999998;;;6.238461538461538;;
15557;SDS011;7880;50.110;9.372;2023-02-28T20:45:03;10.600000000000001;;;6.669230769230771;;
15557;SDS011;7880;50.110;9.372;2023-02-28T20:50:08;11.069230769230767;;;6.215384615384617;;
15557;SDS011;7880;50.110;9.372;2023-02-28T20:55:16;13.29230769230769;;;7.900000000000001;;
15557;SDS011;7880;50.110;9.372;2023-02-28T21:00:17;12.084615384615388;;;6.799999999999998;;
15557;SDS011;7880;50.110;9.372;2023-02-28T21:05:20;12.323076923076922;;;6.299999999999998;;
15557;SDS011;7880;50.110;9.372;2023-02-28T21:10:25;10.676923076923078;;;6.638461538461541;;
15557;SDS011;7880;50.110;9.372;2023-02-28T21:15:29;11.29230769230769;;;7.438461538461538;;
15557;SDS011;7880;50.110;9.372;2023-02-28T21:20:33;9.861538461538462;;;6.4615384615384635;;
15557;SDS011;7880;50.110;9.372;2023-02-28T21:25:36;13.623076923076924;;;6.761538461538462;;
15557;SDS011;7880;50.110;9.372;2023-02-28T21:30:40;9.93846153846154;;;6.83846153846154;;
15557;SDS011;7880;50.110;9.372;2023-02-28T21:35:44;13.199999999999998;;;6.83846153846154;;
15557;SDS011;7880;50.110;9.372;2023-02-28T21:40:50;11.238461538461543;;;6.938461538461538;;
15557;SDS011;7880;50.110;9.372;2023-02-28T21:45:52;12.946153846153841;;;7.1230769230769235;;
15557;SDS011;7880;50.110;9.372;2023-02-28T21:50:57;11.376923076923076;;;6.038461538461537;;
15557;SDS011;7880;50.110;9.372;2023-02-28T21:55:54;10.13846153846154;;;7.261538461538462;;
15557;SDS011;7880;50.110;9.372;2023-02-28T22:01:02;16.06153846153846;;;8.13846153846154;;
15557;SDS011;7880;50.110;9.372;2023-02-28T22:06:09;11.384615384615383;;;6.599999999999999;;
15557;SDS011;7880;50.110;9.372;2023-02-28T22:11:06;14.076923076923073;;;7.238461538461538;;
15557;SDS011;7880;50.110;9.372;2023-02-28T22:16:16;14.246153846153847;;;7.16153846153846;;
15557;SDS011;7880;50.110;9.372;2023-02-28T22:21:20;16.5;;;7.438461538461538;;
15557;SDS011;7880;50.110;9.372;2023-02-28T22:26:20;10.623076923076924;;;7.076923076923078;;
15557;SDS011;7880;50.110;9.372;2023-02-28T22:31:24;13.77692307692308;;;7.046153846153844;;
15557;SDS011;7880;50.110;9.372;2023-02-28T22:36:26;13.53076923076923;;;7.315384615384616;;
15557;SDS011;7880;50.110;9.372;2023-02-28T22:41:30;10.761538461538457;;;7.138461538461541;;